GCHI

Details ICAO GCHI (VDE)
Name Hierro
Region Canary Islands
Timezone Atlantic/Canary (UTC+1.0)
Plans Departing 41
Arriving 67
Stats Elevation 337 ft / 103 m (AMSL)
Location 27.814848° -17.887052°
Runways 1
Magnetic Variation 5.578° W
Sunrise 2018-05-21 06:20:45 UTC / 2018-05-21 07:20:45 Local
Sunset 2018-05-21 19:58:23 UTC / 2018-05-21 20:58:23 Local
Advertisement - Login to hide

Runways

ID Width Length Bearing (true) Bearing (mag) Surface Threshold Offset Overrun Length
16 98 ft / 30 m 4,110 ft / 1,253 m 152.71° 158.29° Asphalt 0 ft / 0 m 112 ft / 34 m
34 98 ft / 30 m 4,110 ft / 1,253 m 332.71° 338.29° Asphalt 0 ft / 0 m 105 ft / 32 m

Map

Weather


0- 5 10 15 20 25 30 35+ Temperature / ° C

Clouds and Precipitation
Forecast for 2018-05-21 12:00 UTC. Updated 31 minutes ago

Ground ~20,000 ft ~40,000 ft Winds

METAR

GCHI 211130Z 36010KT 9999 SCT048 22/12 Q1018

TAF

TAF GCHI 210800Z 2109/2209 01012KT 9999 FEW045 TX21/2115Z TN18/2205Z BECMG 2116/2118 31008KT

Frequencies

Tower 118.10 MHz GCHI TWR
Approach 126.10 MHz GCHI APP
Warning: Do not use this data for real-world aviation or navigation. No guarantee of current accuracy is given.